NCAR-RAP Real-Time Weather Data

Output produced by METARs form (08 May 2021  00:31 UTC)
found at http://weather.rap.ucar.edu/surface/
 
KFNL 072356Z 02012KT 10SM CLR 28/03 A2980 RMK AO2 SLP040 T02780028 10289 20233 56023
KFNL 072256Z 21010KT 10SM CLR 28/02 A2981 RMK AO2 SLP044 T02780017
KFNL 072156Z 14008KT 10SM CLR 28/01 A2985 RMK AO2 PK WND 16037/2112 SLP056 T02780011
KFNL 072056Z 08005KT 10SM CLR 27/03 A2988 RMK AO2 SLP067 T02720033 56025
KFNL 071956Z 12004KT 10SM CLR 28/03 A2990 RMK AO2 SLP070 T02830028
KFNL 071856Z 14008KT 10SM CLR 26/06 A2992 RMK AO2 SLP081 T02610056
KFNL 071756Z 13007KT 10SM CLR 23/08 A2996 RMK AO2 SLP097 T02330083 10239 20067 58020
KFNL 071656Z VRB04KT 10SM CLR 19/08 A3000 RMK AO2 SLP113 T01940078
KFNL 071556Z 17005KT 10SM CLR 17/06 A3001 RMK AO2 SLP125 T01670056
KFNL 071456Z 15005KT 10SM CLR 14/06 A3003 RMK AO2 SLP130 T01390056 58005
KFNL 071356Z 18003KT 10SM CLR 11/05 A3005 RMK AO2 SLP139 T01110050
KFNL 071256Z 16004KT 10SM CLR 08/06 A3006 RMK AO2 SLP140 T00830061
KFNL 071156Z 03003KT 10SM CLR 07/03 A3005 RMK AO2 SLP138 T00720033 10122 20067 56009
KFNL 071056Z 00000KT 10SM CLR 07/04 A3005 RMK AO2 SLP139 T00720044